createdAt,value
2018-09-14T00:01:01.619Z,99517.76
2018-09-14T00:03:29.968Z,99514.75
2018-09-14T00:05:58.290Z,99515.61
2018-09-14T00:08:26.599Z,99515.22
2018-09-14T00:10:54.973Z,99507.77
2018-09-14T00:15:50.582Z,99508.70
2018-09-14T00:18:18.936Z,99507.84
2018-09-14T00:20:47.380Z,99505.87
2018-09-14T00:23:15.738Z,99502.84
2018-09-14T00:25:44.057Z,99505.02
2018-09-14T00:28:12.397Z,99504.63
2018-09-14T00:30:40.803Z,99502.48
2018-09-14T00:33:09.110Z,99514.88
2018-09-14T00:35:37.439Z,99520.65
2018-09-14T00:38:05.742Z,99513.20
2018-09-14T00:40:34.063Z,99512.34
2018-09-14T00:43:02.394Z,99506.64
2018-09-14T00:45:30.711Z,99514.23
2018-09-14T00:47:59.126Z,99502.31
2018-09-14T00:50:27.422Z,99507.72
2018-09-14T00:52:55.758Z,99508.19
2018-09-14T00:55:24.046Z,99510.84
2018-09-14T00:57:52.374Z,99505.54
2018-09-14T01:00:21.191Z,99506.97
2018-09-14T01:02:49.517Z,99501.78
2018-09-14T01:05:17.846Z,99507.19
2018-09-14T01:07:46.131Z,99504.55
2018-09-14T01:10:14.447Z,99506.34
2018-09-14T01:12:42.732Z,99501.14
2018-09-14T01:15:10.998Z,99495.84
2018-09-14T01:17:39.302Z,99491.51
2018-09-14T01:20:07.645Z,99492.44
2018-09-14T01:22:35.938Z,99494.73
2018-09-14T01:25:04.287Z,99496.06
2018-09-14T01:27:32.572Z,99498.71
2018-09-14T01:30:00.862Z,99494.73
2018-09-14T01:32:29.159Z,99490.87
2018-09-14T01:34:57.442Z,99484.82
2018-09-14T01:37:25.771Z,99489.27
2018-09-14T01:39:54.993Z,99484.54
2018-09-14T01:42:23.266Z,99488.05
2018-09-14T01:44:51.546Z,99492.02
2018-09-14T01:47:19.874Z,99492.02
2018-09-14T01:49:48.163Z,99493.09
2018-09-14T01:52:16.510Z,99489.13
2018-09-14T01:54:44.775Z,99489.13
2018-09-14T01:57:13.066Z,99489.23
2018-09-14T01:59:41.410Z,99486.19
2018-09-14T02:02:09.695Z,99482.69
2018-09-14T02:04:38.010Z,99479.31
2018-09-14T02:07:06.306Z,99481.97
2018-09-14T02:09:34.603Z,99477.99
2018-09-14T02:12:02.882Z,99478.92
2018-09-14T02:14:31.159Z,99475.91
2018-09-14T02:16:59.531Z,99483.37
2018-09-14T02:19:28.546Z,99482.16
2018-09-14T02:21:56.842Z,99485.19
2018-09-14T02:24:25.148Z,99480.47
2018-09-14T02:26:53.414Z,99479.61
2018-09-14T02:29:21.733Z,99474.81
2018-09-14T02:31:50.063Z,99473.48
2018-09-14T02:34:18.390Z,99468.26
2018-09-14T02:36:46.677Z,99465.25
2018-09-14T02:39:14.963Z,99467.44
2018-09-14T02:41:43.224Z,99462.25
2018-09-14T02:44:11.564Z,99461.75
2018-09-14T02:46:39.858Z,99459.70
2018-09-14T02:49:08.195Z,99462.35
2018-09-14T02:51:36.472Z,99462.35
2018-09-14T02:54:04.782Z,99461.11
2018-09-14T02:56:33.062Z,99468.59
2018-09-14T02:59:01.849Z,99471.23
2018-09-14T03:01:30.127Z,99463.86
2018-09-14T03:03:58.430Z,99470.48
2018-09-14T03:06:26.754Z,99465.69
2018-09-14T03:08:55.070Z,99467.95
2018-09-14T03:11:23.419Z,99468.05
2018-09-14T03:13:51.714Z,99468.05
2018-09-14T03:16:20.071Z,99468.05
2018-09-14T03:18:48.373Z,99464.66
2018-09-14T03:21:16.641Z,99467.70
2018-09-14T03:23:45.199Z,99473.82
2018-09-14T03:26:13.734Z,99462.51
2018-09-14T03:28:42.058Z,99466.95
2018-09-14T03:31:10.373Z,99465.73
2018-09-14T03:33:38.689Z,99468.73
2018-09-14T03:36:07.222Z,99463.08
2018-09-14T03:38:35.523Z,99459.68
2018-09-14T03:41:03.879Z,99461.47
2018-09-14T03:43:32.197Z,99463.30
2018-09-14T03:46:00.487Z,99466.02
2018-09-14T03:48:28.783Z,99461.58
2018-09-14T03:50:57.059Z,99463.38
2018-09-14T03:53:25.427Z,99467.34
2018-09-14T03:55:53.702Z,99462.66
2018-09-14T03:58:21.986Z,99465.30
2018-09-14T04:00:50.261Z,99462.66
2018-09-14T04:03:19.173Z,99468.42
2018-09-14T04:05:47.566Z,99469.38
2018-09-14T04:08:15.874Z,99475.51
2018-09-14T04:10:44.158Z,99473.83
2018-09-14T04:13:12.510Z,99475.15
2018-09-14T04:15:40.794Z,99472.11
2018-09-14T04:18:09.062Z,99467.78
2018-09-14T04:20:37.395Z,99474.40
2018-09-14T04:23:05.708Z,99481.98
2018-09-14T04:25:33.994Z,99471.86
2018-09-14T04:28:02.261Z,99478.48
2018-09-14T04:30:30.638Z,99474.97
2018-09-14T04:32:58.966Z,99473.28
2018-09-14T04:35:27.282Z,99476.77
2018-09-14T04:37:55.668Z,99473.19
2018-09-14T04:40:23.935Z,99474.11
2018-09-14T04:42:52.294Z,99474.97
2018-09-14T04:45:20.574Z,99469.31
2018-09-14T04:47:48.886Z,99466.77
2018-09-14T04:50:17.250Z,99470.75
2018-09-14T04:52:45.530Z,99469.31
2018-09-14T04:55:13.834Z,99472.07
2018-09-14T04:57:42.121Z,99472.07
2018-09-14T05:00:10.447Z,99475.08
2018-09-14T05:02:39.634Z,99472.07
2018-09-14T05:05:07.998Z,99471.68
2018-09-14T05:07:36.319Z,99472.53
2018-09-14T05:10:04.719Z,99474.83
2018-09-14T05:12:33.033Z,99476.98
2018-09-14T05:15:01.370Z,99469.53
2018-09-14T05:17:29.690Z,99473.50
2018-09-14T05:19:58.014Z,99474.44
2018-09-14T05:22:26.403Z,99476.15
2018-09-14T05:24:54.739Z,99476.62
2018-09-14T05:27:23.066Z,99480.59
2018-09-14T05:29:51.408Z,99484.09
2018-09-14T05:32:19.741Z,99480.70
2018-09-14T05:34:48.117Z,99479.73
2018-09-14T05:37:16.469Z,99483.70
2018-09-14T05:39:44.858Z,99481.05
2018-09-14T05:42:13.262Z,99485.99
2018-09-14T05:44:41.595Z,99478.52
2018-09-14T05:47:09.955Z,99480.70
2018-09-14T05:49:38.258Z,99481.16
2018-09-14T05:52:06.583Z,99488.25
2018-09-14T05:54:34.984Z,99491.39
2018-09-14T05:57:03.223Z,99495.27
2018-09-14T05:59:31.515Z,99495.27
2018-09-14T06:01:59.970Z,99500.92
2018-09-14T06:04:28.271Z,99503.09
2018-09-14T06:06:56.557Z,99492.51
2018-09-14T06:09:24.870Z,99494.09
2018-09-14T06:11:53.175Z,99501.56
2018-09-14T06:14:21.478Z,99492.58
2018-09-14T06:16:49.784Z,99490.30
2018-09-14T06:19:18.271Z,99498.41
2018-09-14T06:21:46.584Z,99496.30
2018-09-14T06:24:14.886Z,99495.63
2018-09-14T06:26:43.194Z,99499.38
2018-09-14T06:29:11.510Z,99496.88
2018-09-14T06:31:39.838Z,99497.52
2018-09-14T06:34:08.110Z,99497.23
2018-09-14T06:36:36.402Z,99497.76
2018-09-14T06:39:07.398Z,99495.75
2018-09-14T06:41:35.726Z,99487.47
2018-09-14T06:44:04.127Z,99489.44
2018-09-14T06:46:32.456Z,99480.80
2018-09-14T06:49:00.729Z,99489.28
2018-09-14T06:51:29.137Z,99483.64
2018-09-14T06:53:57.415Z,99484.28
2018-09-14T06:56:25.706Z,99485.69
2018-09-14T06:58:54.110Z,99488.01
2018-09-14T07:01:22.426Z,99487.20
2018-09-14T07:03:50.721Z,99491.82
2018-09-14T07:06:19.056Z,99495.85
2018-09-14T07:08:47.377Z,99500.82
2018-09-14T07:11:16.051Z,99499.77
2018-09-14T07:13:44.359Z,99508.61
2018-09-14T07:16:12.690Z,99499.16
2018-09-14T07:18:41.026Z,99510.38
2018-09-14T07:21:09.467Z,99509.92
2018-09-14T07:23:37.769Z,99509.16
2018-09-14T07:26:06.087Z,99513.87
2018-09-14T07:28:34.403Z,99512.27
2018-09-14T07:31:02.762Z,99514.59
2018-09-14T07:33:31.067Z,99512.95
2018-09-14T07:35:59.423Z,99519.25
2018-09-14T07:38:27.702Z,99521.61
2018-09-14T07:40:56.070Z,99520.31
2018-09-14T07:43:24.419Z,99523.14
2018-09-14T07:45:52.730Z,99528.98
2018-09-14T07:48:21.391Z,99529.16
2018-09-14T07:50:49.650Z,99525.31
2018-09-14T07:53:17.942Z,99526.92
2018-09-14T07:55:46.274Z,99529.82
2018-09-14T07:58:14.591Z,99535.52
2018-09-14T08:00:42.973Z,99533.72
2018-09-14T08:03:11.299Z,99538.09
2018-09-14T08:05:39.647Z,99543.28
2018-09-14T08:08:07.948Z,99540.41
2018-09-14T08:10:36.427Z,99537.18
2018-09-14T08:13:04.781Z,99536.72
2018-09-14T08:15:33.054Z,99538.78
2018-09-14T08:18:01.370Z,99540.00
2018-09-14T08:20:29.847Z,99547.73
2018-09-14T08:22:58.235Z,99549.70
2018-09-14T08:25:26.538Z,99544.64
2018-09-14T08:27:54.867Z,99552.19
2018-09-14T08:30:23.506Z,99546.20
2018-09-14T08:32:51.789Z,99553.55
2018-09-14T08:35:20.095Z,99552.49
2018-09-14T08:37:48.505Z,99557.33
2018-09-14T08:40:16.857Z,99560.34
2018-09-14T08:42:45.183Z,99561.66
2018-09-14T08:45:13.467Z,99565.17
2018-09-14T08:47:41.836Z,99564.70
2018-09-14T08:50:10.191Z,99565.92
2018-09-14T08:52:38.514Z,99564.95
2018-09-14T08:55:06.826Z,99567.03
2018-09-14T08:57:35.138Z,99567.03
2018-09-14T09:00:03.438Z,99574.41
2018-09-14T09:02:31.806Z,99568.24
2018-09-14T09:05:00.181Z,99570.78
2018-09-14T09:07:28.518Z,99566.58
2018-09-14T09:09:56.849Z,99570.73
2018-09-14T09:12:26.154Z,99566.41
2018-09-14T09:14:54.469Z,99564.16
2018-09-14T09:17:22.775Z,99573.39
2018-09-14T09:19:51.105Z,99568.52
2018-09-14T09:22:19.422Z,99563.25
2018-09-14T09:24:47.715Z,99572.70
2018-09-14T09:27:16.015Z,99569.35
2018-09-14T09:29:44.318Z,99562.14
2018-09-14T09:32:12.622Z,99567.15
2018-09-14T09:34:40.913Z,99563.55
2018-09-14T09:37:09.235Z,99559.87
2018-09-14T09:39:37.531Z,99563.05
2018-09-14T09:42:05.862Z,99564.47
2018-09-14T09:44:34.159Z,99557.48
2018-09-14T09:47:02.557Z,99556.53
2018-09-14T09:49:30.844Z,99558.03
2018-09-14T09:51:59.210Z,99552.02
2018-09-14T09:54:27.519Z,99544.68
2018-09-14T09:56:55.841Z,99544.85
2018-09-14T09:59:24.158Z,99538.58
2018-09-14T10:01:57.706Z,99539.30
2018-09-14T10:04:31.357Z,99540.87
2018-09-14T10:06:59.690Z,99534.69
2018-09-14T10:09:28.049Z,99537.22
2018-09-14T10:11:56.398Z,99533.15
2018-09-14T10:14:24.876Z,99538.03
2018-09-14T10:16:53.231Z,99530.03
2018-09-14T10:19:21.574Z,99532.50
2018-09-14T10:21:49.973Z,99536.96
2018-09-14T10:24:18.227Z,99535.53
2018-09-14T10:26:46.559Z,99538.09
2018-09-14T10:29:14.867Z,99541.05
2018-09-14T10:31:43.167Z,99533.22
2018-09-14T10:34:11.495Z,99528.73
2018-09-14T10:36:39.884Z,99533.20
2018-09-14T10:39:09.766Z,99525.23
2018-09-14T10:41:38.100Z,99522.47
2018-09-14T10:44:06.491Z,99519.13
2018-09-14T10:46:34.805Z,99519.73
2018-09-14T10:49:03.149Z,99526.44
2018-09-14T10:51:31.607Z,99519.00
2018-09-14T10:53:59.983Z,99520.73
2018-09-14T10:56:28.298Z,99513.79
2018-09-14T10:58:56.615Z,99513.33
2018-09-14T11:01:24.906Z,99512.18
2018-09-14T11:03:53.237Z,99511.59
2018-09-14T11:06:21.566Z,99515.89
2018-09-14T11:08:49.884Z,99518.78
2018-09-14T11:11:18.174Z,99514.70
2018-09-14T11:13:46.590Z,99511.63
2018-09-14T11:16:14.857Z,99512.02
2018-09-14T11:18:43.281Z,99508.57
2018-09-14T11:21:11.453Z,99507.42
2018-09-14T11:23:39.786Z,99509.59
2018-09-14T11:26:08.119Z,99504.28
2018-09-14T11:28:36.622Z,99498.59
2018-09-14T11:31:05.463Z,99498.44
2018-09-14T11:33:33.771Z,99497.66
2018-09-14T11:36:02.062Z,99503.30
2018-09-14T11:38:30.535Z,99498.13
2018-09-14T11:40:58.778Z,99495.64
2018-09-14T11:43:27.236Z,99496.13
2018-09-14T11:45:55.579Z,99497.05
2018-09-14T11:48:23.862Z,99495.77
2018-09-14T11:50:52.183Z,99494.62
2018-09-14T11:53:20.539Z,99490.36
2018-09-14T11:55:48.841Z,99481.45
2018-09-14T11:58:17.159Z,99483.64
2018-09-14T12:00:45.553Z,99473.75
2018-09-14T12:03:13.898Z,99471.94
2018-09-14T12:05:42.209Z,99474.42
2018-09-14T12:08:10.583Z,99469.52
2018-09-14T12:10:38.875Z,99465.91
2018-09-14T12:13:07.167Z,99462.42
2018-09-14T12:15:35.470Z,99460.48
2018-09-14T12:18:03.743Z,99460.37
2018-09-14T12:20:32.138Z,99459.78
2018-09-14T12:23:00.475Z,99450.56
2018-09-14T12:25:28.796Z,99445.51
2018-09-14T12:28:00.134Z,99441.05
2018-09-14T12:30:28.457Z,99436.83
2018-09-14T12:32:56.786Z,99439.05
2018-09-14T12:35:25.107Z,99436.01
2018-09-14T12:37:53.434Z,99436.90
2018-09-14T12:40:21.795Z,99430.73
2018-09-14T12:42:50.070Z,99431.39
2018-09-14T12:45:18.407Z,99433.94
2018-09-14T12:47:46.767Z,99420.75
2018-09-14T12:50:15.071Z,99423.42
2018-09-14T12:52:43.378Z,99423.69
2018-09-14T12:55:11.707Z,99423.69
2018-09-14T12:57:40.070Z,99424.76
2018-09-14T13:00:08.791Z,99423.47
2018-09-14T13:02:37.154Z,99417.52
2018-09-14T13:05:05.618Z,99411.81
2018-09-14T13:07:33.911Z,99415.80
2018-09-14T13:10:02.211Z,99411.46
2018-09-14T13:12:30.486Z,99410.61
2018-09-14T13:14:58.905Z,99412.92
2018-09-14T13:17:27.114Z,99412.67
2018-09-14T13:19:55.566Z,99410.14
2018-09-14T13:22:23.975Z,99407.13
2018-09-14T13:24:52.371Z,99406.02
2018-09-14T13:27:20.675Z,99406.87
2018-09-14T13:29:49.002Z,99403.61
2018-09-14T13:32:17.358Z,99404.34
2018-09-14T13:34:45.606Z,99399.89
2018-09-14T13:37:14.434Z,99400.88
2018-09-14T13:39:42.731Z,99398.55
2018-09-14T13:42:11.018Z,99405.34
2018-09-14T13:44:39.418Z,99407.88
2018-09-14T13:47:07.759Z,99404.41
2018-09-14T13:49:36.051Z,99402.48
2018-09-14T13:52:04.373Z,99399.95
2018-09-14T13:54:32.695Z,99410.50
2018-09-14T13:57:01.006Z,99406.25
2018-09-14T13:59:29.303Z,99401.19
2018-09-14T14:01:57.638Z,99403.12
2018-09-14T14:04:26.032Z,99402.77
2018-09-14T14:06:54.350Z,99396.25
2018-09-14T14:09:22.695Z,99396.72
2018-09-14T14:11:50.988Z,99397.83
2018-09-14T14:14:19.293Z,99395.77
2018-09-14T14:16:47.644Z,99388.48
2018-09-14T14:19:16.807Z,99385.82
2018-09-14T14:21:45.126Z,99384.87
2018-09-14T14:24:13.418Z,99381.95
2018-09-14T14:26:41.728Z,99384.61
2018-09-14T14:29:10.046Z,99379.89
2018-09-14T14:31:38.351Z,99381.85
2018-09-14T14:34:06.694Z,99379.41
2018-09-14T14:36:35.024Z,99382.07
2018-09-14T14:39:03.422Z,99376.05
2018-09-14T14:41:31.900Z,99367.09
2018-09-14T14:44:00.158Z,99374.34
2018-09-14T14:46:28.486Z,99371.58
2018-09-14T14:48:56.785Z,99376.90
2018-09-14T14:51:25.091Z,99377.02
2018-09-14T14:53:53.379Z,99374.97
2018-09-14T14:56:21.691Z,99371.20
2018-09-14T14:58:50.010Z,99371.93
2018-09-14T15:01:18.342Z,99374.12
2018-09-14T15:03:46.658Z,99370.48
2018-09-14T15:06:15.082Z,99368.33
2018-09-14T15:08:43.438Z,99371.45
2018-09-14T15:11:11.825Z,99374.12
2018-09-14T15:13:40.211Z,99367.09
2018-09-14T15:16:08.510Z,99372.78
2018-09-14T15:18:36.814Z,99370.73
2018-09-14T15:21:05.155Z,99373.38
2018-09-14T15:23:33.508Z,99375.19
2018-09-14T15:26:01.862Z,99368.19
2018-09-14T15:28:30.143Z,99369.17
2018-09-14T15:30:58.502Z,99377.97
2018-09-14T15:33:26.809Z,99372.30
2018-09-14T15:35:55.462Z,99375.91
2018-09-14T15:38:23.781Z,99374.23
2018-09-14T15:43:37.510Z,99362.61
2018-09-14T15:46:05.858Z,99364.58
2018-09-14T15:48:34.154Z,99367.36
2018-09-14T15:51:02.522Z,99358.53
2018-09-14T15:53:30.822Z,99363.47
2018-09-14T15:55:59.254Z,99364.09
2018-09-14T15:58:27.607Z,99363.71
2018-09-14T16:00:55.993Z,99362.38
2018-09-14T16:03:24.326Z,99365.17
2018-09-14T16:05:52.810Z,99367.47
2018-09-14T16:08:21.134Z,99366.62
2018-09-14T16:10:49.499Z,99361.90
2018-09-14T16:13:17.818Z,99368.20
2018-09-14T16:15:46.187Z,99364.33
2018-09-14T16:18:14.494Z,99362.50
2018-09-14T16:20:42.946Z,99354.30
2018-09-14T16:23:11.244Z,99363.13
2018-09-14T16:25:39.584Z,99363.72
2018-09-14T16:28:07.878Z,99363.72
2018-09-14T16:30:36.263Z,99363.97
2018-09-14T16:33:04.635Z,99363.97
2018-09-14T16:35:32.919Z,99369.37
2018-09-14T16:38:01.249Z,99368.67
2018-09-14T16:40:29.571Z,99370.00
2018-09-14T16:42:57.969Z,99368.41
2018-09-14T16:45:27.059Z,99367.52
2018-09-14T16:47:55.389Z,99368.63
2018-09-14T16:50:23.707Z,99365.23
2018-09-14T16:52:52.039Z,99375.39
2018-09-14T16:55:20.386Z,99369.81
2018-09-14T16:57:48.723Z,99374.30
2018-09-14T17:00:17.018Z,99370.33
2018-09-14T17:02:45.448Z,99375.25
2018-09-14T17:05:13.702Z,99374.17
2018-09-14T17:07:42.051Z,99369.33
2018-09-14T17:10:10.404Z,99371.63
2018-09-14T17:12:38.747Z,99378.27
2018-09-14T17:15:07.532Z,99380.55
2018-09-14T17:17:35.986Z,99382.50
2018-09-14T17:20:04.453Z,99378.99
2018-09-14T17:22:32.754Z,99378.61
2018-09-14T17:25:01.092Z,99383.09
2018-09-14T17:27:29.460Z,99392.52
2018-09-14T17:29:57.718Z,99390.06
2018-09-14T17:32:26.042Z,99391.52
2018-09-14T17:34:54.373Z,99390.70
2018-09-14T17:37:22.729Z,99393.94
2018-09-14T17:39:51.075Z,99397.19
2018-09-14T17:42:19.386Z,99389.70
2018-09-14T17:44:47.691Z,99392.94
2018-09-14T17:47:16.023Z,99396.92
2018-09-14T17:49:44.375Z,99394.51
2018-09-14T17:52:12.742Z,99395.37
2018-09-14T17:54:41.087Z,99400.80
2018-09-14T17:57:09.422Z,99400.92
2018-09-14T17:59:37.726Z,99403.19
2018-09-14T18:02:06.098Z,99397.05
2018-09-14T18:04:34.647Z,99393.19
2018-09-14T18:07:02.990Z,99390.62
2018-09-14T18:09:32.122Z,99397.26
2018-09-14T18:12:00.487Z,99393.52
2018-09-14T18:14:28.789Z,99399.41
2018-09-14T18:16:57.310Z,99394.61
2018-09-14T18:19:25.647Z,99397.73
2018-09-14T18:21:54.010Z,99402.31
2018-09-14T18:24:23.062Z,99407.73
2018-09-14T18:26:51.410Z,99411.84
2018-09-14T18:29:19.816Z,99414.02
2018-09-14T18:31:48.134Z,99418.59
2018-09-14T18:34:16.527Z,99422.11
2018-09-14T18:36:44.851Z,99423.52
2018-09-14T18:39:13.478Z,99424.02
2018-09-14T18:41:41.991Z,99428.00
2018-09-14T18:44:10.421Z,99430.27
2018-09-14T18:46:38.899Z,99432.93
2018-09-14T18:49:07.720Z,99430.78
2018-09-14T18:51:36.049Z,99431.37
2018-09-14T18:54:04.515Z,99432.58
2018-09-14T18:56:32.861Z,99436.20
2018-09-14T18:59:01.334Z,99434.02
2018-09-14T19:01:29.638Z,99437.62
2018-09-14T19:03:57.985Z,99432.31
2018-09-14T19:06:26.317Z,99438.94
2018-09-14T19:08:54.630Z,99434.61
2018-09-14T19:11:22.950Z,99440.03
2018-09-14T19:13:51.259Z,99444.02
2018-09-14T19:16:19.655Z,99440.97
2018-09-14T19:18:48.015Z,99439.65
2018-09-14T19:21:16.417Z,99442.42
2018-09-14T19:23:44.768Z,99448.59
2018-09-14T19:26:13.054Z,99437.55
2018-09-14T19:28:41.394Z,99445.19
2018-09-14T19:31:09.717Z,99450.62
2018-09-14T19:33:38.566Z,99447.96
2018-09-14T19:36:06.874Z,99452.41
2018-09-14T19:38:35.321Z,99454.25
2018-09-14T19:41:03.524Z,99451.67
2018-09-14T19:43:31.846Z,99448.63
2018-09-14T19:46:00.229Z,99448.28
2018-09-14T19:48:28.555Z,99448.63
2018-09-14T19:50:56.846Z,99455.77
2018-09-14T19:53:25.162Z,99449.22
2018-09-14T19:55:53.489Z,99445.23
2018-09-14T19:58:21.799Z,99442.70
2018-09-14T20:00:50.104Z,99446.33
2018-09-14T20:03:18.450Z,99447.27
2018-09-14T20:05:46.786Z,99446.44
2018-09-14T20:08:15.110Z,99449.92
2018-09-14T20:10:43.440Z,99448.23
2018-09-14T20:13:11.754Z,99447.03
2018-09-14T20:15:40.031Z,99444.02
2018-09-14T20:18:08.701Z,99445.81
2018-09-14T20:20:37.074Z,99449.80
2018-09-14T20:23:05.365Z,99453.78
2018-09-14T20:25:33.680Z,99449.91
2018-09-14T20:28:02.009Z,99450.85
2018-09-14T20:30:30.410Z,99450.85
2018-09-14T20:32:58.683Z,99448.70
2018-09-14T20:35:27.058Z,99445.66
2018-09-14T20:37:55.378Z,99455.80
2018-09-14T20:40:23.694Z,99452.41
2018-09-14T20:42:52.014Z,99464.00
2018-09-14T20:45:20.333Z,99470.98
2018-09-14T20:47:48.646Z,99476.41
2018-09-14T20:50:16.991Z,99471.57
2018-09-14T20:52:45.326Z,99478.31
2018-09-14T20:55:13.647Z,99473.98
2018-09-14T20:57:41.955Z,99471.33
2018-09-14T21:00:10.310Z,99476.25
2018-09-14T21:02:38.617Z,99477.22
2018-09-14T21:05:07.124Z,99478.55
2018-09-14T21:07:35.459Z,99477.69
2018-09-14T21:10:03.799Z,99482.64
2018-09-14T21:12:32.127Z,99489.28
2018-09-14T21:15:00.504Z,99491.55
2018-09-14T21:17:28.814Z,99491.19
2018-09-14T21:19:57.106Z,99498.79
2018-09-14T21:22:25.405Z,99502.38
2018-09-14T21:24:53.726Z,99500.23
2018-09-14T21:27:22.052Z,99499.84
2018-09-14T21:29:50.714Z,99509.23
2018-09-14T21:32:19.079Z,99511.42
2018-09-14T21:34:47.482Z,99506.70
2018-09-14T21:37:16.214Z,99514.30
2018-09-14T21:39:44.538Z,99515.63
2018-09-14T21:42:12.849Z,99513.05
2018-09-14T21:44:47.634Z,99512.59
2018-09-14T21:47:16.791Z,99513.56
2018-09-14T21:49:45.106Z,99514.14
2018-09-14T21:52:13.478Z,99512.34
2018-09-14T21:54:41.818Z,99510.27
2018-09-14T21:57:10.124Z,99514.61
2018-09-14T21:59:38.585Z,99520.88
2018-09-14T22:02:06.918Z,99521.35
2018-09-14T22:04:35.260Z,99521.81
2018-09-14T22:07:03.679Z,99525.91
2018-09-14T22:09:32.002Z,99525.44
2018-09-14T22:12:00.311Z,99523.76
2018-09-14T22:14:28.714Z,99523.76
2018-09-14T22:16:57.030Z,99526.88
2018-09-14T22:19:25.367Z,99532.30
2018-09-14T22:21:53.688Z,99525.66
2018-09-14T22:24:21.982Z,99534.95
2018-09-14T22:26:50.271Z,99531.91
2018-09-14T22:29:18.875Z,99528.90
2018-09-14T22:31:47.195Z,99534.67
2018-09-14T22:34:15.514Z,99540.84
2018-09-14T22:36:43.890Z,99536.97
2018-09-14T22:39:13.439Z,99535.75
2018-09-14T22:41:41.802Z,99539.73
2018-09-14T22:44:10.302Z,99537.55
2018-09-14T22:46:38.718Z,99539.34
2018-09-14T22:49:07.039Z,99541.99
2018-09-14T22:51:35.357Z,99533.68
2018-09-14T22:54:03.662Z,99538.13
2018-09-14T22:56:32.034Z,99538.13
2018-09-14T22:59:00.383Z,99539.09
2018-09-14T23:01:28.682Z,99529.42
2018-09-14T23:03:57.002Z,99536.55
2018-09-14T23:06:25.309Z,99533.90
2018-09-14T23:08:53.650Z,99535.70
2018-09-14T23:11:21.982Z,99540.03
2018-09-14T23:13:50.393Z,99530.03
2018-09-14T23:16:18.698Z,99534.37
2018-09-14T23:18:47.039Z,99531.83
2018-09-14T23:21:15.346Z,99530.97
2018-09-14T23:23:43.706Z,99536.66
2018-09-14T23:26:14.195Z,99534.59
2018-09-14T23:28:42.686Z,99534.59
2018-09-14T23:31:11.094Z,99539.89
2018-09-14T23:33:39.423Z,99546.63
2018-09-14T23:36:07.842Z,99547.09
2018-09-14T23:38:36.229Z,99551.08
2018-09-14T23:41:04.565Z,99548.89
2018-09-14T23:43:32.886Z,99553.84
2018-09-14T23:46:01.221Z,99544.91
2018-09-14T23:48:29.565Z,99540.58
2018-09-14T23:50:57.870Z,99545.03
2018-09-14T23:53:26.170Z,99546.34
2018-09-14T23:55:54.562Z,99540.30
2018-09-14T23:58:22.870Z,99535.86
